Alt de San Lorenzo, Puerto Rico
Current Conditions -  °F | °C
As of 9:56 PM on Wednesday 17 Dec 2014 (Local Time) from TJSJ Reporting Station
Scattered Clouds Scattered Clouds  
Wind Chill: 78°   Ceiling: Unl
Heat Index: 80°   Visibility: 10mi
Dew Point: 67°   Wind: 8mph
Humidity: 68%   Direction: 30°NNE
Pressure: 30.06"   Gusts: NA
Location:  18.1909°N, 65.9618°W
Report Text: TJSJ 180156Z 03007KT 10SM SCT035 26/19 A3006 RMK AO2 SLP177 T02560194
Loading
Personal Weather Stations






























Interactive Weather Map New forecast layout! Learn more

10-Day Weather Forecast

Advertisements
Track Severe Weather on mobile